KBUR/BUR METAR and TAF weather

Enter ICAO airport designator
Station Type Date Time Source
KBUR METAR 2019/10/21 04:53 UTC NOAA

KBUR 210453Z 06003KT 10SM CLR 23/M01 A2992 RMK AO2 SLP118 T02331011 $


Station Type Date Time Source
KBUR Decoded METAR 2019/10/21 04:53 UTC NOAA

BURBANK-GLENDALE-PASADENA, CA, United States (KBUR) 34-12N 118-22W 217M
Oct 21, 2019 - 12:53 AM EDT / 2019.10.21 0453 UTC
Wind: from the ENE (060 degrees) at 3 MPH (3 KT):0
Visibility: 10 mile(s):0
Sky conditions: clear
Temperature: 73.9 F (23.3 C)
Dew Point: 30.0 F (-1.1 C)
Relative Humidity: 19%
Pressure (altimeter): 29.92 in. Hg (1013 hPa)
ob: KBUR 210453Z 06003KT 10SM CLR 23/M01 A2992 RMK AO2 SLP118 T02331011
cycle: 5

Station Type Date Time Source
KBUR TAF 2019/10/21 06:36 UTC NOAA

TAF KBUR 210535Z 2106/2206 05006KT P6SM SKC
FM212000 17008KT P6SM SKC
FM220300 VRB03KT P6SM SKC

Example: see airport list